Time;durP1;ratioP1;P1;durP2;ratioP2;P2;SDS_P1;SDS_P2;PMS_P1;PMS_P2;Temp;Humidity;BMP_temperature;BMP_pressure;BME280_temperature;BME280_humidity;BME280_pressure;Samples;Min_cycle;Max_cycle;Signal;HPM_P1;HPM_P2
2022/02/23 00:00:11;;;;;;;3.07;1.10;;;8.50;86.60;;;;;;4993095;28;20441;-71
2022/02/23 00:02:37;;;;;;;1.70;1.03;;;8.50;86.60;;;;;;4992660;28;20218;-70
2022/02/23 00:05:04;;;;;;;1.93;0.90;;;8.50;86.60;;;;;;4992542;28;20429;-73
2022/02/23 00:07:30;;;;;;;3.17;1.17;;;8.50;86.80;;;;;;4989735;28;20932;-75
2022/02/23 00:09:55;;;;;;;3.43;0.80;;;8.50;86.80;;;;;;4990237;28;20445;-70
2022/02/23 00:12:21;;;;;;;1.37;1.00;;;8.50;86.80;;;;;;4992088;28;20508;-74
2022/02/23 00:14:47;;;;;;;3.53;1.10;;;8.50;87.00;;;;;;4990765;28;20217;-71
2022/02/23 00:17:13;;;;;;;3.10;1.10;;;8.50;87.10;;;;;;4992006;28;20289;-72
2022/02/23 00:19:38;;;;;;;3.37;0.93;;;8.50;87.10;;;;;;4993971;28;20191;-72
2022/02/23 00:22:04;;;;;;;3.90;0.90;;;8.50;87.10;;;;;;4993199;28;20397;-71
2022/02/23 00:24:30;;;;;;;1.63;0.97;;;8.50;87.30;;;;;;4992277;28;20679;-73
2022/02/23 00:26:56;;;;;;;2.33;0.90;;;8.50;87.70;;;;;;4991928;28;20924;-70
2022/02/23 00:29:21;;;;;;;2.67;1.13;;;8.50;87.70;;;;;;4992205;28;20193;-70
2022/02/23 00:31:47;;;;;;;1.00;0.90;;;8.50;87.70;;;;;;4992132;28;20186;-71
2022/02/23 00:34:13;;;;;;;10.83;1.93;;;8.50;87.70;;;;;;4991487;28;20273;-69
2022/02/23 00:36:39;;;;;;;3.40;1.20;;;8.50;88.00;;;;;;4992123;28;20198;-70
2022/02/23 00:39:05;;;;;;;2.67;1.67;;;8.50;88.10;;;;;;4992441;28;20433;-72
2022/02/23 00:41:30;;;;;;;2.90;0.90;;;8.50;88.40;;;;;;4992113;28;20183;-69
2022/02/23 00:43:56;;;;;;;2.00;1.00;;;8.50;88.60;;;;;;4987531;28;20203;-71
2022/02/23 00:46:22;;;;;;;3.00;1.10;;;8.50;88.90;;;;;;4992155;28;20259;-72
2022/02/23 00:48:48;;;;;;;1.53;1.00;;;8.40;89.20;;;;;;4990634;28;20206;-71
2022/02/23 00:51:14;;;;;;;5.43;1.47;;;8.40;89.60;;;;;;4991724;28;20523;-74
2022/02/23 00:53:39;;;;;;;4.20;1.10;;;8.40;89.90;;;;;;4991355;28;20445;-70
2022/02/23 00:56:05;;;;;;;1.57;0.80;;;8.40;90.20;;;;;;4991306;28;20577;-74
2022/02/23 00:58:31;;;;;;;1.53;0.90;;;8.40;90.60;;;;;;4992140;28;20178;-72
2022/02/23 01:00:57;;;;;;;1.43;0.83;;;8.40;90.70;;;;;;4989912;28;20217;-73
2022/02/23 01:16:52;;;;;;;6.80;1.27;;;8.40;91.00;;;;;;4983963;28;20508;-73
2022/02/23 01:19:17;;;;;;;2.50;1.00;;;8.50;90.90;;;;;;4992073;28;20418;-73
2022/02/23 01:21:43;;;;;;;3.60;1.10;;;8.50;90.90;;;;;;4991465;28;20591;-71
2022/02/23 01:24:09;;;;;;;1.60;1.10;;;8.50;91.20;;;;;;4991607;28;20191;-71
2022/02/23 01:26:34;;;;;;;2.53;1.17;;;8.40;91.40;;;;;;5000166;28;20187;-71
2022/02/23 01:29:00;;;;;;;2.20;1.00;;;8.40;91.80;;;;;;4986001;28;20186;-72
2022/02/23 01:31:27;;;;;;;1.60;1.13;;;8.40;92.00;;;;;;4987723;28;20182;-73
2022/02/23 01:33:52;;;;;;;2.07;1.10;;;8.40;92.30;;;;;;4990416;28;20433;-73
2022/02/23 01:36:18;;;;;;;1.50;0.97;;;8.30;92.60;;;;;;4991237;28;20479;-72
2022/02/23 01:38:44;;;;;;;3.30;1.40;;;8.20;92.80;;;;;;4989944;28;20187;-72
2022/02/23 01:41:10;;;;;;;1.67;1.07;;;8.20;92.80;;;;;;4984445;28;20419;-71
2022/02/23 01:43:36;;;;;;;1.10;0.87;;;8.20;92.90;;;;;;4989327;28;20692;-70
2022/02/23 01:46:02;;;;;;;3.10;1.17;;;8.20;93.30;;;;;;4990519;28;20512;-72
2022/02/23 01:48:28;;;;;;;2.47;1.20;;;8.20;93.40;;;;;;4991352;28;20189;-71
2022/02/23 01:50:53;;;;;;;6.90;1.30;;;8.20;93.50;;;;;;4991398;28;20799;-72
2022/02/23 01:53:19;;;;;;;5.03;1.10;;;8.20;93.50;;;;;;4985630;28;20211;-70
2022/02/23 01:55:45;;;;;;;5.03;1.20;;;8.00;90.60;;;;;;4989811;28;20679;-71
2022/02/23 01:58:11;;;;;;;2.77;1.20;;;7.30;86.60;;;;;;4991651;28;20197;-70
2022/02/23 02:00:37;;;;;;;4.17;1.20;;;7.00;89.20;;;;;;4991171;28;20809;-70
2022/02/23 02:03:03;;;;;;;8.60;1.33;;;6.60;91.10;;;;;;4990325;28;20484;-70
2022/02/23 02:05:29;;;;;;;6.80;1.23;;;6.50;91.90;;;;;;4990346;28;20425;-70
2022/02/23 02:07:55;;;;;;;6.60;2.00;;;6.30;92.20;;;;;;4990651;28;20194;-70
2022/02/23 02:10:20;;;;;;;3.40;1.10;;;6.10;92.30;;;;;;4990112;28;20194;-70
2022/02/23 02:12:46;;;;;;;4.83;1.30;;;6.00;93.00;;;;;;4990136;28;20206;-70
2022/02/23 02:15:12;;;;;;;3.73;2.13;;;5.90;93.20;;;;;;4982186;28;20273;-72
2022/02/23 02:17:41;;;;;;;12.33;1.50;;;5.80;93.30;;;;;;4991276;28;20635;-71
2022/02/23 02:20:08;;;;;;;6.20;1.63;;;5.70;93.90;;;;;;4991428;28;20202;-69
2022/02/23 02:22:34;;;;;;;6.40;1.80;;;5.80;94.10;;;;;;4988002;28;21060;-70
2022/02/23 02:24:59;;;;;;;6.77;1.60;;;5.80;94.20;;;;;;4988061;28;20525;-72
2022/02/23 02:27:26;;;;;;;7.47;2.60;;;5.80;94.60;;;;;;4991452;28;20179;-71
2022/02/23 02:29:52;;;;;;;3.57;1.27;;;5.80;94.70;;;;;;4991757;28;20443;-71
2022/02/23 02:32:18;;;;;;;4.73;1.07;;;5.80;94.20;;;;;;4987706;28;20453;-70
2022/02/23 02:34:45;;;;;;;3.47;1.70;;;5.80;94.30;;;;;;4986250;28;20217;-69
2022/02/23 02:37:11;;;;;;;5.50;1.30;;;5.90;94.60;;;;;;4989986;28;20430;-72
2022/02/23 02:39:37;;;;;;;4.00;1.30;;;6.00;94.70;;;;;;4989093;28;20433;-70
2022/02/23 02:42:04;;;;;;;6.87;1.67;;;5.90;94.70;;;;;;4989548;28;20826;-70
2022/02/23 02:44:29;;;;;;;5.17;1.50;;;5.90;94.70;;;;;;4990077;28;20187;-70
2022/02/23 02:46:55;;;;;;;5.47;1.60;;;5.90;94.40;;;;;;4989922;28;20437;-70
2022/02/23 02:49:21;;;;;;;9.50;2.03;;;6.00;94.10;;;;;;4989230;28;20425;-71
2022/02/23 02:51:50;;;;;;;5.53;1.57;;;6.00;93.90;;;;;;4989751;28;20202;-69
2022/02/23 02:54:16;;;;;;;9.00;1.97;;;6.10;93.60;;;;;;4983483;28;20278;-71
2022/02/23 02:56:43;;;;;;;3.23;1.30;;;6.10;93.50;;;;;;4989816;28;20503;-70
2022/02/23 02:59:08;;;;;;;5.07;1.37;;;6.10;93.20;;;;;;4990026;28;20461;-71
2022/02/23 03:01:35;;;;;;;4.50;1.33;;;6.20;93.20;;;;;;4989926;28;20422;-71
2022/02/23 03:04:02;;;;;;;7.00;1.97;;;6.20;93.00;;;;;;4989039;28;20449;-69
2022/02/23 03:06:29;;;;;;;3.83;1.50;;;6.20;92.80;;;;;;4988463;28;20441;-69
2022/02/23 03:08:55;;;;;;;11.70;2.87;;;6.30;92.70;;;;;;4989451;28;20434;-71
2022/02/23 03:11:22;;;;;;;3.63;1.93;;;6.30;92.20;;;;;;4986359;28;20421;-68
2022/02/23 03:13:48;;;;;;;7.87;2.37;;;6.30;91.70;;;;;;4992820;28;20458;-68
2022/02/23 03:16:15;;;;;;;4.00;1.40;;;6.40;91.00;;;;;;4986803;28;20525;-68
2022/02/23 03:18:41;;;;;;;13.37;2.27;;;6.60;90.80;;;;;;4991065;28;20422;-68
2022/02/23 03:21:07;;;;;;;3.57;1.70;;;6.60;90.90;;;;;;4981727;28;21305;-68
2022/02/23 03:23:34;;;;;;;5.93;1.57;;;6.60;90.40;;;;;;4989962;28;20473;-69
2022/02/23 03:26:00;;;;;;;2.97;1.60;;;6.70;90.20;;;;;;4983686;28;20437;-68
2022/02/23 03:28:26;;;;;;;2.93;1.53;;;6.70;90.40;;;;;;4990087;28;20422;-69
2022/02/23 03:30:52;;;;;;;4.23;1.50;;;6.80;90.40;;;;;;4993080;28;20425;-70
2022/02/23 03:33:18;;;;;;;6.80;2.30;;;6.70;89.90;;;;;;4982905;28;21003;-69
2022/02/23 03:35:45;;;;;;;7.30;2.00;;;6.70;89.70;;;;;;4990376;28;20429;-68
2022/02/23 03:38:11;;;;;;;6.43;1.87;;;6.70;89.70;;;;;;4992148;28;20908;-70
2022/02/23 03:40:39;;;;;;;5.47;2.33;;;6.70;89.70;;;;;;4991101;28;20947;-70
2022/02/23 03:43:05;;;;;;;6.50;1.97;;;6.70;89.70;;;;;;4989462;28;20573;-69
2022/02/23 03:45:31;;;;;;;4.20;1.80;;;6.70;89.50;;;;;;4987834;28;20940;-69
2022/02/23 03:47:58;;;;;;;5.50;1.93;;;6.60;89.90;;;;;;4989933;28;21102;-69
2022/02/23 03:50:24;;;;;;;8.77;1.97;;;6.60;89.70;;;;;;4990271;28;20432;-72
2022/02/23 03:52:50;;;;;;;8.23;1.83;;;6.50;89.60;;;;;;4988424;28;20454;-74
2022/02/23 03:55:16;;;;;;;4.37;2.20;;;6.50;90.00;;;;;;4992882;28;20609;-69
2022/02/23 03:57:42;;;;;;;2.20;1.47;;;6.50;90.10;;;;;;4992352;28;20433;-69
2022/02/23 04:00:11;;;;;;;6.73;1.70;;;6.50;90.10;;;;;;4986502;28;20965;-73
2022/02/23 04:02:37;;;;;;;6.10;1.87;;;6.60;90.20;;;;;;4993512;28;20477;-68
2022/02/23 04:05:10;;;;;;;12.57;2.30;;;6.60;90.70;;;;;;4996065;28;20983;-69
2022/02/23 04:07:37;;;;;;;7.73;2.73;;;6.50;91.10;;;;;;4993761;28;20441;-69
2022/02/23 04:10:04;;;;;;;6.33;2.30;;;6.50;91.50;;;;;;4999205;28;20766;-70
2022/02/23 04:12:29;;;;;;;7.43;2.00;;;6.50;91.70;;;;;;4991652;28;20943;-71
2022/02/23 04:14:55;;;;;;;6.83;2.70;;;6.40;92.00;;;;;;4989888;28;20455;-69
2022/02/23 04:17:21;;;;;;;7.20;2.10;;;6.30;92.20;;;;;;4993344;28;20194;-68
2022/02/23 04:19:47;;;;;;;7.53;2.00;;;6.20;92.50;;;;;;4993443;28;20676;-69
2022/02/23 04:22:12;;;;;;;13.30;2.67;;;6.20;92.80;;;;;;4992271;28;20257;-70
2022/02/23 04:24:38;;;;;;;7.47;2.00;;;6.30;93.00;;;;;;4992759;28;20182;-70
2022/02/23 04:27:04;;;;;;;8.70;2.30;;;6.20;93.20;;;;;;4992824;28;20428;-70
2022/02/23 04:29:31;;;;;;;5.90;1.93;;;6.20;93.40;;;;;;4985931;28;20711;-70
2022/02/23 04:31:58;;;;;;;4.53;2.30;;;6.20;93.60;;;;;;4993224;28;21162;-70
2022/02/23 04:34:24;;;;;;;10.33;3.07;;;6.10;93.80;;;;;;4993716;28;20499;-71
2022/02/23 04:36:50;;;;;;;21.40;3.37;;;6.10;93.90;;;;;;4993575;28;20433;-72
2022/02/23 04:39:16;;;;;;;8.40;2.50;;;6.00;94.00;;;;;;4998669;28;20430;-71
2022/02/23 04:41:42;;;;;;;17.80;2.37;;;6.00;94.10;;;;;;5000089;28;20465;-69
2022/02/23 04:44:09;;;;;;;6.40;2.70;;;6.00;94.20;;;;;;4994276;28;20428;-72
2022/02/23 04:46:34;;;;;;;8.37;2.77;;;5.90;94.40;;;;;;4986832;28;20429;-68
2022/02/23 04:49:01;;;;;;;6.47;3.10;;;5.80;94.70;;;;;;4992534;28;20422;-68
2022/02/23 04:51:29;;;;;;;7.13;2.97;;;5.80;94.90;;;;;;4990631;28;20556;-68
2022/02/23 04:53:57;;;;;;;12.07;3.07;;;5.70;95.10;;;;;;4984825;28;20474;-69
2022/02/23 04:56:22;;;;;;;7.80;2.73;;;5.80;95.20;;;;;;4990308;28;20779;-69
2022/02/23 04:58:48;;;;;;;4.67;2.50;;;5.70;95.30;;;;;;4992249;28;20479;-68
2022/02/23 05:01:15;;;;;;;9.53;2.23;;;5.70;95.30;;;;;;4991430;28;20441;-68
2022/02/23 05:03:41;;;;;;;9.57;4.40;;;5.70;95.50;;;;;;4989627;28;20987;-70
2022/02/23 05:06:07;;;;;;;9.73;2.30;;;5.60;95.60;;;;;;4991362;28;20444;-69
2022/02/23 05:08:33;;;;;;;5.50;2.40;;;5.60;95.80;;;;;;4992285;28;20185;-69
2022/02/23 05:10:59;;;;;;;12.10;2.83;;;5.70;95.80;;;;;;4987002;28;20476;-68
2022/02/23 05:13:25;;;;;;;4.40;2.47;;;5.70;95.80;;;;;;4991030;28;20472;-67
2022/02/23 05:15:57;;;;;;;7.20;2.70;;;5.70;95.70;;;;;;4988384;28;20430;-69
2022/02/23 05:18:25;;;;;;;7.30;2.30;;;5.60;95.70;;;;;;4991549;28;20483;-69
2022/02/23 05:20:51;;;;;;;9.77;2.10;;;5.60;95.70;;;;;;4991826;28;20821;-70
2022/02/23 05:23:17;;;;;;;7.60;2.47;;;5.60;95.70;;;;;;4990813;28;20469;-68
2022/02/23 05:25:43;;;;;;;12.00;2.77;;;5.60;95.60;;;;;;4981765;28;20242;-70
2022/02/23 05:28:08;;;;;;;5.90;2.73;;;5.50;95.70;;;;;;4991237;28;20182;-68
2022/02/23 05:30:34;;;;;;;11.20;2.80;;;5.50;95.80;;;;;;4991310;28;20186;-69
2022/02/23 05:33:00;;;;;;;6.40;2.80;;;5.40;95.70;;;;;;4990311;28;20296;-69
2022/02/23 05:35:26;;;;;;;5.03;2.50;;;5.30;95.80;;;;;;4990770;28;20182;-67
2022/02/23 05:37:51;;;;;;;16.50;3.10;;;5.30;96.00;;;;;;4991451;28;20225;-69
2022/02/23 05:40:17;;;;;;;8.33;3.33;;;5.30;96.00;;;;;;4991106;28;20237;-72
2022/02/23 05:42:43;;;;;;;12.93;3.37;;;5.20;96.00;;;;;;4990232;28;20288;-68
2022/02/23 05:45:10;;;;;;;10.40;2.63;;;5.20;96.00;;;;;;4990579;28;20430;-70
2022/02/23 05:47:36;;;;;;;10.80;2.80;;;5.20;96.10;;;;;;4992929;28;20438;-69
2022/02/23 05:50:02;;;;;;;6.57;2.80;;;5.20;96.00;;;;;;4993036;28;20429;-69
2022/02/23 05:52:28;;;;;;;8.17;3.70;;;5.10;95.90;;;;;;4990523;28;20213;-70
2022/02/23 05:54:54;;;;;;;16.63;3.93;;;5.00;96.00;;;;;;4990102;28;20524;-70
2022/02/23 05:57:20;;;;;;;15.20;3.17;;;4.90;96.00;;;;;;4991023;28;20480;-70
2022/02/23 05:59:46;;;;;;;9.03;2.73;;;4.90;96.20;;;;;;4991146;28;20210;-70
2022/02/23 06:02:12;;;;;;;14.33;4.00;;;4.90;96.30;;;;;;4989868;28;20269;-69
2022/02/23 06:04:37;;;;;;;8.50;4.03;;;4.90;96.40;;;;;;4989240;28;20804;-71
2022/02/23 06:07:04;;;;;;;9.03;3.17;;;4.90;96.30;;;;;;4990597;28;20182;-70
2022/02/23 06:09:31;;;;;;;11.43;3.57;;;4.80;96.40;;;;;;4990445;28;20186;-69
2022/02/23 06:11:57;;;;;;;7.83;3.13;;;4.80;96.50;;;;;;4989870;28;21153;-71
2022/02/23 06:14:23;;;;;;;6.40;2.97;;;4.80;96.40;;;;;;4990098;28;20507;-69
2022/02/23 06:16:49;;;;;;;7.20;3.43;;;4.80;96.50;;;;;;4990835;28;20194;-70
2022/02/23 06:19:14;;;;;;;7.63;3.67;;;4.80;96.50;;;;;;4989111;28;20435;-68
2022/02/23 06:21:40;;;;;;;10.70;3.73;;;4.80;96.50;;;;;;4990175;28;20194;-69
2022/02/23 06:24:06;;;;;;;6.83;3.70;;;4.80;96.50;;;;;;4989788;28;20225;-68
2022/02/23 06:26:32;;;;;;;7.00;3.50;;;4.80;96.60;;;;;;4990153;28;20269;-69
2022/02/23 06:28:58;;;;;;;12.33;3.73;;;4.80;96.60;;;;;;4990048;28;20434;-71
2022/02/23 06:31:23;;;;;;;7.17;3.83;;;4.90;96.60;;;;;;4988822;28;20456;-69
2022/02/23 06:33:50;;;;;;;10.03;3.47;;;5.00;96.50;;;;;;4988260;28;20481;-70
2022/02/23 06:36:17;;;;;;;14.23;3.90;;;5.00;96.50;;;;;;4989641;28;20254;-69
2022/02/23 06:38:43;;;;;;;9.53;4.07;;;5.10;96.50;;;;;;4990039;28;20967;-70
2022/02/23 06:41:13;;;;;;;9.57;3.93;;;5.10;96.30;;;;;;4989865;28;20504;-70
2022/02/23 06:43:40;;;;;;;10.90;4.87;;;5.10;96.00;;;;;;4988852;28;21296;-69
2022/02/23 06:46:06;;;;;;;8.13;3.73;;;4.90;95.80;;;;;;4988501;28;20434;-69
2022/02/23 06:48:32;;;;;;;10.30;3.57;;;4.90;95.80;;;;;;4989900;28;20485;-70
2022/02/23 06:50:59;;;;;;;7.40;3.70;;;4.80;95.70;;;;;;4988846;28;20441;-70
2022/02/23 06:53:25;;;;;;;10.87;4.07;;;4.80;95.80;;;;;;4993803;28;20455;-70
2022/02/23 06:55:52;;;;;;;8.80;3.97;;;4.90;96.00;;;;;;4991492;28;20422;-69
2022/02/23 06:58:18;;;;;;;13.03;3.50;;;5.00;96.00;;;;;;4990046;28;20442;-70
2022/02/23 07:00:44;;;;;;;9.20;3.77;;;5.00;96.00;;;;;;4990419;28;20432;-69
2022/02/23 07:03:11;;;;;;;7.80;3.80;;;5.00;95.90;;;;;;4988835;28;20472;-68
2022/02/23 07:05:36;;;;;;;10.87;3.73;;;5.10;96.00;;;;;;4989258;28;20202;-67
2022/02/23 07:08:05;;;;;;;6.83;4.10;;;5.00;95.90;;;;;;4989555;28;20449;-67
2022/02/23 07:10:32;;;;;;;9.93;3.37;;;5.00;95.80;;;;;;4989976;28;20175;-68
2022/02/23 07:13:00;;;;;;;8.80;3.93;;;5.00;95.60;;;;;;4988908;28;20603;-69
2022/02/23 07:15:26;;;;;;;11.33;3.80;;;5.00;95.40;;;;;;4986579;28;20552;-68
2022/02/23 07:17:53;;;;;;;8.50;3.40;;;5.00;95.30;;;;;;4989851;28;20935;-69
2022/02/23 07:20:18;;;;;;;8.20;3.77;;;5.00;95.20;;;;;;4988782;28;20513;-70
2022/02/23 07:22:45;;;;;;;12.90;4.70;;;5.00;95.30;;;;;;4989534;28;20600;-70
2022/02/23 07:25:12;;;;;;;7.10;4.13;;;5.00;95.30;;;;;;4988883;28;20556;-70
2022/02/23 07:27:39;;;;;;;14.20;4.13;;;5.00;95.20;;;;;;4991490;28;20420;-69
2022/02/23 07:30:07;;;;;;;10.23;5.10;;;5.00;95.20;;;;;;4993792;28;20421;-69
2022/02/23 07:32:33;;;;;;;12.90;4.80;;;5.00;95.30;;;;;;4993212;28;20488;-70
2022/02/23 07:35:00;;;;;;;7.80;4.70;;;5.00;95.30;;;;;;4994169;28;20440;-69
2022/02/23 07:37:27;;;;;;;11.37;4.60;;;4.90;95.30;;;;;;4994888;28;20428;-70
2022/02/23 07:39:55;;;;;;;9.57;4.70;;;4.90;95.30;;;;;;4994114;28;20430;-69
2022/02/23 07:42:21;;;;;;;9.90;4.77;;;4.90;95.40;;;;;;4990285;28;20469;-71
2022/02/23 07:44:47;;;;;;;9.23;4.90;;;4.90;95.70;;;;;;4992926;28;20453;-72
2022/02/23 07:47:17;;;;;;;8.03;5.00;;;4.90;95.80;;;;;;4991932;28;20444;-70
2022/02/23 07:49:49;;;;;;;9.43;5.20;;;5.10;96.00;;;;;;4993148;28;20927;-71
2022/02/23 07:52:19;;;;;;;10.40;5.57;;;5.10;95.90;;;;;;4992435;28;20445;-73
2022/02/23 07:54:46;;;;;;;11.03;5.30;;;5.10;95.80;;;;;;4992473;28;20452;-73
2022/02/23 07:57:13;;;;;;;11.40;6.20;;;5.10;95.70;;;;;;4993064;28;20421;-72
2022/02/23 07:59:39;;;;;;;9.70;5.13;;;5.20;95.90;;;;;;4992931;28;20476;-73
2022/02/23 08:02:05;;;;;;;8.67;5.20;;;5.20;96.00;;;;;;4992260;28;20955;-71
2022/02/23 08:04:32;;;;;;;9.67;4.90;;;5.30;96.00;;;;;;4991491;28;20460;-72
2022/02/23 08:06:59;;;;;;;8.60;5.50;;;5.40;96.00;;;;;;4991214;28;20433;-70
2022/02/23 08:09:25;;;;;;;11.60;5.10;;;5.50;95.70;;;;;;4993133;28;20480;-71
2022/02/23 08:11:51;;;;;;;13.13;4.50;;;5.60;95.40;;;;;;4993141;28;20464;-70
2022/02/23 08:14:18;;;;;;;12.00;5.00;;;5.60;95.30;;;;;;4989650;28;20481;-71
2022/02/23 08:19:34;;;;;;;13.00;5.23;;;5.70;95.20;;;;;;4995241;28;20469;-69
2022/02/23 08:22:06;;;;;;;13.00;6.20;;;5.80;95.20;;;;;;4992630;28;20773;-71
2022/02/23 08:24:37;;;;;;;12.80;5.40;;;5.80;95.10;;;;;;4991372;28;20529;-69
2022/02/23 08:27:05;;;;;;;14.13;5.57;;;5.80;95.10;;;;;;4992832;28;20430;-69
2022/02/23 08:29:31;;;;;;;10.37;6.33;;;6.00;94.90;;;;;;4991358;28;20512;-70
2022/02/23 08:31:57;;;;;;;13.73;5.40;;;5.90;94.90;;;;;;4991865;28;20433;-71
2022/02/23 08:34:24;;;;;;;28.80;14.27;;;6.10;94.90;;;;;;4992051;28;20424;-70
2022/02/23 08:36:50;;;;;;;14.30;7.07;;;6.20;94.90;;;;;;4992187;28;20434;-69
2022/02/23 08:39:16;;;;;;;13.07;6.40;;;6.30;94.70;;;;;;4992126;28;20421;-69
2022/02/23 08:41:44;;;;;;;14.20;6.20;;;6.30;94.70;;;;;;4992021;28;20425;-68
2022/02/23 08:44:11;;;;;;;14.07;4.63;;;6.40;94.70;;;;;;4991401;28;20443;-69
2022/02/23 08:46:38;;;;;;;8.73;4.47;;;6.50;94.50;;;;;;4991829;28;20490;-70
2022/02/23 08:49:07;;;;;;;10.53;4.87;;;6.60;94.20;;;;;;4990967;28;20445;-71
2022/02/23 08:51:34;;;;;;;10.57;4.47;;;6.70;93.80;;;;;;4992029;28;20429;-70
2022/02/23 08:54:00;;;;;;;11.67;4.50;;;6.90;93.20;;;;;;4991304;28;20488;-71
2022/02/23 08:56:26;;;;;;;10.70;4.50;;;7.00;92.80;;;;;;4991505;28;20508;-71
2022/02/23 08:58:52;;;;;;;10.40;4.30;;;7.10;92.50;;;;;;4992603;28;20498;-69
2022/02/23 09:01:18;;;;;;;7.73;3.67;;;7.20;92.30;;;;;;4991703;28;20504;-69
2022/02/23 09:03:44;;;;;;;14.00;5.23;;;7.30;92.00;;;;;;4991575;28;20284;-69
2022/02/23 09:06:11;;;;;;;10.83;4.20;;;7.50;91.60;;;;;;4991391;28;20438;-69
2022/02/23 09:08:36;;;;;;;5.83;3.67;;;7.70;90.40;;;;;;4992099;28;20189;-69
2022/02/23 09:11:03;;;;;;;10.93;2.80;;;7.90;89.60;;;;;;4991696;28;20422;-76
2022/02/23 09:13:28;;;;;;;5.27;2.30;;;8.00;88.90;;;;;;4990077;28;20313;-69
2022/02/23 09:15:54;;;;;;;5.90;2.20;;;8.10;87.10;;;;;;4988454;28;20510;-72
2022/02/23 09:18:23;;;;;;;3.53;1.90;;;8.20;84.10;;;;;;4990522;28;20193;-70
2022/02/23 09:20:51;;;;;;;8.10;2.10;;;8.30;83.10;;;;;;4991868;28;20191;-69
2022/02/23 09:23:19;;;;;;;4.97;2.03;;;8.30;82.80;;;;;;4986182;28;20469;-70
2022/02/23 09:25:45;;;;;;;10.03;4.10;;;8.40;82.70;;;;;;4991018;28;20940;-68
2022/02/23 09:28:11;;;;;;;6.03;3.60;;;8.50;82.80;;;;;;4989829;28;20440;-68
2022/02/23 09:30:37;;;;;;;3.90;1.60;;;8.60;82.80;;;;;;4989153;28;20865;-72
2022/02/23 09:33:03;;;;;;;7.53;2.10;;;8.70;80.30;;;;;;4988180;28;20241;-73
2022/02/23 09:35:29;;;;;;;5.10;2.13;;;8.80;78.40;;;;;;4990592;28;20611;-70
2022/02/23 09:37:57;;;;;;;4.83;2.47;;;9.00;76.70;;;;;;4991464;28;20517;-71
2022/02/23 09:40:24;;;;;;;7.47;2.00;;;9.10;75.90;;;;;;4991196;28;20208;-69
2022/02/23 09:42:50;;;;;;;4.43;2.10;;;9.20;75.10;;;;;;4990157;28;20504;-71
2022/02/23 09:45:17;;;;;;;6.90;1.60;;;9.30;73.70;;;;;;4990376;28;20923;-73
2022/02/23 09:47:43;;;;;;;10.93;1.93;;;9.40;73.00;;;;;;4991793;28;20515;-72
2022/02/23 09:50:18;;;;;;;3.77;1.60;;;9.60;71.70;;;;;;4991208;28;21165;-71
2022/02/23 09:52:44;;;;;;;7.93;2.50;;;9.70;70.70;;;;;;4991457;28;20523;-71
2022/02/23 09:55:10;;;;;;;8.63;2.23;;;9.80;71.40;;;;;;4984686;28;20438;-71
2022/02/23 09:57:36;;;;;;;3.30;1.77;;;9.80;70.40;;;;;;4991804;28;20452;-70
2022/02/23 10:00:05;;;;;;;13.10;2.73;;;9.80;71.00;;;;;;4998051;28;20656;-72
2022/02/23 10:02:34;;;;;;;8.23;2.73;;;9.80;71.10;;;;;;4992788;28;20621;-71
2022/02/23 10:05:04;;;;;;;5.50;2.07;;;9.70;72.00;;;;;;4991558;28;20805;-74
2022/02/23 10:07:32;;;;;;;3.70;1.73;;;9.80;72.00;;;;;;4991672;28;20473;-70
2022/02/23 10:10:03;;;;;;;3.60;1.77;;;9.70;71.00;;;;;;4991156;28;20437;-71
2022/02/23 10:12:29;;;;;;;9.60;4.07;;;9.90;71.00;;;;;;4990490;28;20444;-72
2022/02/23 10:15:13;;;;;;;6.20;2.20;;;10.00;71.30;;;;;;4987566;28;20596;-73
2022/02/23 10:17:50;;;;;;;3.10;1.77;;;10.00;71.80;;;;;;4988438;28;21340;-71
2022/02/23 10:20:25;;;;;;;4.50;1.73;;;10.10;71.70;;;;;;4990273;28;20429;-70
2022/02/23 10:22:55;;;;;;;8.10;2.10;;;10.20;70.20;;;;;;4992383;28;20526;-73
2022/02/23 10:25:26;;;;;;;10.10;2.63;;;10.30;67.70;;;;;;4982044;28;20927;-72
2022/02/23 10:28:06;;;;;;;4.13;2.00;;;10.20;67.30;;;;;;4989994;28;20425;-73
2022/02/23 10:30:32;;;;;;;4.73;2.00;;;10.20;67.20;;;;;;4985350;28;20448;-72
2022/02/23 10:33:15;;;;;;;6.13;1.90;;;10.20;67.00;;;;;;4987001;28;20545;-69
2022/02/23 10:35:50;;;;;;;6.60;2.63;;;10.20;67.60;;;;;;4990029;28;20182;-71
2022/02/23 10:38:20;;;;;;;6.03;1.87;;;10.30;68.60;;;;;;4990342;28;20428;-70
2022/02/23 10:40:46;;;;;;;5.80;2.60;;;10.50;68.00;;;;;;4989406;28;20430;-71
2022/02/23 10:43:36;;;;;;;6.57;1.80;;;10.60;65.70;;;;;;4987939;28;20616;-72
2022/02/23 10:46:15;;;;;;;10.30;2.30;;;10.60;65.80;;;;;;4987882;28;20197;-70
2022/02/23 10:48:43;;;;;;;2.90;1.70;;;10.40;66.40;;;;;;4989790;28;20496;-71
2022/02/23 10:51:24;;;;;;;7.47;1.90;;;10.50;66.30;;;;;;4989090;28;20434;-69
2022/02/23 10:53:51;;;;;;;3.90;1.90;;;10.60;66.10;;;;;;4988919;28;20856;-73
2022/02/23 10:56:35;;;;;;;8.77;1.60;;;11.00;65.30;;;;;;4989749;28;20437;-71
2022/02/23 10:59:17;;;;;;;7.07;2.00;;;11.70;64.10;;;;;;4988337;28;20417;-72
2022/02/23 11:01:47;;;;;;;9.60;1.83;;;12.50;62.20;;;;;;4992351;28;20421;-70
2022/02/23 11:04:14;;;;;;;5.93;1.90;;;13.30;60.10;;;;;;4993233;28;20984;-70
2022/02/23 11:06:41;;;;;;;5.97;1.93;;;13.80;56.50;;;;;;4994299;28;20422;-72
2022/02/23 11:09:09;;;;;;;5.43;2.57;;;14.20;56.20;;;;;;4991877;28;20486;-73
2022/02/23 11:11:36;;;;;;;4.10;2.27;;;14.60;53.80;;;;;;4990877;28;20430;-72
2022/02/23 11:14:06;;;;;;;6.27;2.30;;;14.30;54.10;;;;;;4990952;28;20470;-72
2022/02/23 11:16:32;;;;;;;7.97;1.70;;;14.00;54.90;;;;;;4994560;28;20417;-70
2022/02/23 11:19:00;;;;;;;4.03;1.70;;;13.70;55.40;;;;;;4993411;28;20436;-70
2022/02/23 11:21:29;;;;;;;5.00;2.03;;;13.70;56.20;;;;;;4993128;28;20187;-71
2022/02/23 11:24:00;;;;;;;7.07;1.67;;;14.10;55.70;;;;;;4992276;28;20568;-70
2022/02/23 11:26:37;;;;;;;6.87;1.90;;;13.80;55.30;;;;;;4982755;28;20418;-70
2022/02/23 11:29:15;;;;;;;4.10;1.70;;;14.00;55.00;;;;;;4993472;28;20776;-71
2022/02/23 11:31:41;;;;;;;4.30;2.10;;;14.50;54.40;;;;;;4992621;28;20411;-72
2022/02/23 11:34:08;;;;;;;8.13;1.90;;;15.00;53.60;;;;;;4992066;28;20523;-70
2022/02/23 11:36:45;;;;;;;3.10;1.80;;;15.00;52.60;;;;;;4988070;28;20300;-71
2022/02/23 11:39:23;;;;;;;3.17;1.87;;;14.70;52.50;;;;;;4989596;28;20418;-69
2022/02/23 11:41:55;;;;;;;6.87;1.93;;;14.40;53.30;;;;;;4992931;28;20789;-69
2022/02/23 11:44:26;;;;;;;4.63;1.80;;;14.30;53.20;;;;;;4983418;28;20959;-70
2022/02/23 11:47:11;;;;;;;4.20;1.80;;;14.40;53.30;;;;;;4992955;28;20492;-70
2022/02/23 11:49:38;;;;;;;4.00;1.87;;;14.50;51.80;;;;;;4992263;28;20489;-70
2022/02/23 11:52:27;;;;;;;2.50;1.50;;;14.40;52.90;;;;;;4993572;28;20429;-71
2022/02/23 11:54:59;;;;;;;6.33;2.30;;;14.90;51.40;;;;;;4985707;28;20418;-71
2022/02/23 12:00:43;;;;;;;5.13;1.93;;;15.10;51.00;;;;;;4987715;28;20403;-70
2022/02/23 12:03:26;;;;;;;7.03;2.20;;;15.40;51.00;;;;;;4994489;28;20489;-71
2022/02/23 12:05:56;;;;;;;6.83;2.03;;;15.50;50.90;;;;;;4994262;28;20898;-70
2022/02/23 12:08:43;;;;;;;5.50;2.10;;;15.30;51.80;;;;;;4993483;28;20423;-71
2022/02/23 12:11:08;;;;;;;7.50;2.40;;;15.30;52.60;;;;;;4992155;28;20421;-70
2022/02/23 12:13:35;;;;;;;5.13;2.40;;;15.50;52.00;;;;;;4990544;28;20466;-72
2022/02/23 12:16:23;;;;;;;5.73;2.00;;;15.70;52.00;;;;;;4989252;28;20178;-70
2022/02/23 12:19:11;;;;;;;4.17;2.07;;;15.90;51.20;;;;;;4992709;28;20464;-71
2022/02/23 12:21:39;;;;;;;6.83;2.20;;;15.90;50.70;;;;;;4986986;28;20414;-71
2022/02/23 12:24:06;;;;;;;3.70;2.40;;;14.90;52.80;;;;;;4991192;28;20448;-70
2022/02/23 12:26:36;;;;;;;7.80;2.47;;;14.20;53.80;;;;;;4991394;28;20430;-71
2022/02/23 12:29:05;;;;;;;8.97;2.70;;;14.10;54.90;;;;;;4983861;28;20499;-70
2022/02/23 12:31:33;;;;;;;6.40;2.37;;;14.30;55.40;;;;;;4991713;28;20457;-71
2022/02/23 12:34:02;;;;;;;3.37;2.30;;;14.60;54.60;;;;;;4991831;28;20473;-71
2022/02/23 12:36:36;;;;;;;6.27;2.10;;;14.60;53.80;;;;;;4992116;28;20463;-71
2022/02/23 12:39:14;;;;;;;3.47;1.83;;;14.60;54.40;;;;;;4991960;28;20505;-71
2022/02/23 12:41:41;;;;;;;3.43;2.30;;;14.80;54.00;;;;;;4990031;28;20922;-70
2022/02/23 12:44:13;;;;;;;4.97;2.50;;;14.90;53.30;;;;;;4983380;28;20468;-73
2022/02/23 12:46:45;;;;;;;4.43;1.93;;;14.90;53.80;;;;;;4992011;28;20510;-72
2022/02/23 12:49:15;;;;;;;4.93;1.57;;;15.00;53.00;;;;;;4992011;28;20505;-70
2022/02/23 12:51:43;;;;;;;7.00;3.10;;;15.00;52.80;;;;;;4982870;28;20855;-72
2022/02/23 12:54:14;;;;;;;5.90;2.17;;;15.20;52.80;;;;;;4990468;28;21135;-73
2022/02/23 12:56:45;;;;;;;4.80;1.80;;;15.30;52.60;;;;;;4991068;28;20665;-68
2022/02/23 12:59:17;;;;;;;5.93;2.00;;;15.60;52.00;;;;;;4985737;28;20457;-71
2022/02/23 13:01:54;;;;;;;3.43;1.90;;;15.70;51.40;;;;;;4979661;28;20475;-70
2022/02/23 13:04:42;;;;;;;6.63;2.47;;;15.50;52.40;;;;;;4974199;28;20444;-71
2022/02/23 13:07:13;;;;;;;6.30;2.10;;;15.60;51.80;;;;;;4989372;28;20428;-75
2022/02/23 13:09:43;;;;;;;8.10;2.37;;;15.50;51.30;;;;;;4988852;28;21260;-71
2022/02/23 13:12:10;;;;;;;3.30;2.10;;;15.30;49.90;;;;;;4988342;28;20438;-71
2022/02/23 13:14:46;;;;;;;4.80;2.00;;;15.10;51.00;;;;;;4989052;28;20986;-70